Xingzhou — BERZ5 — position and weather

sailwx.info

Track history (hours):
 
Tides and Currents Weather Stations Pressure Air Temp Water Temp Dewpoint Dewpoint Depression Visibility Wind Speed Wind Dir Waves Ship Positions

Xingzhou

Last reported at 2018-Jun-11 14:54 UTC. Time now 2018-Jun-18 17:23 UTC.
Position N 23°24' E 117°10'.

Length 98 m; draft 5.8 m.

Type: Ship. MMSI: 413591770.

Date/timePositionNaut miles runAvg speedWind from/ knotsBaromVisibWave heightAir tempDewpointWater temp
2018-Jun-11 14:54N 23°24' E 117°10'4 8.0
2018-Jun-11 14:24N 23°25' E 117°14'4 7.9
2018-Jun-11 13:56N 23°27' E 117°18'3 7.5
2018-Jun-11 13:30N 23°28' E 117°21'3 6.9
2018-Jun-11 13:00N 23°30' E 117°24'3 6.4
2018-Jun-11 12:30N 23°32' E 117°27'3 6.2
2018-Jun-11 12:01N 23°34' E 117°30'3 6.2
2018-Jun-11 11:30N 23°36' E 117°32'3 6.5
2018-Jun-11 11:01N 23°38' E 117°35'3 6.4
2018-Jun-11 10:30N 23°40' E 117°38'3 6.7
2018-Jun-11 10:00N 23°42' E 117°41'4 7.0
2018-Jun-11 09:30N 23°44' E 117°44'4 7.5
2018-Jun-11 08:58N 23°47' E 117°47'9 8.0
2018-Jun-11 07:54N 23°52' E 117°54'49 8.7
2018-Jun-11 02:19N 24°21' E 118°37'  
Track history (hours):
 
Tides and Currents Weather Stations Pressure Air Temp Water Temp Dewpoint Dewpoint Depression Visibility Wind Speed Wind Dir Waves Ship Positions

Xingzhou

Last reported at 2018-Jun-11 14:54 UTC. Time now 2018-Jun-18 17:23 UTC.
Position N 23°24' E 117°10'.

Length 98 m; draft 5.8 m.

Type: Ship. MMSI: 413591770.

Date/timePositionNaut miles runAvg speedWind from/ knotsBaromVisibWave heightAir tempDewpointWater temp
2018-Jun-11 14:54N 23°24' E 117°10'4 8.0
2018-Jun-11 14:24N 23°25' E 117°14'4 7.9
2018-Jun-11 13:56N 23°27' E 117°18'3 7.5
2018-Jun-11 13:30N 23°28' E 117°21'3 6.9
2018-Jun-11 13:00N 23°30' E 117°24'3 6.4
2018-Jun-11 12:30N 23°32' E 117°27'3 6.2
2018-Jun-11 12:01N 23°34' E 117°30'3 6.2
2018-Jun-11 11:30N 23°36' E 117°32'3 6.5
2018-Jun-11 11:01N 23°38' E 117°35'3 6.4
2018-Jun-11 10:30N 23°40' E 117°38'3 6.7
2018-Jun-11 10:00N 23°42' E 117°41'4 7.0
2018-Jun-11 09:30N 23°44' E 117°44'4 7.5
2018-Jun-11 08:58N 23°47' E 117°47'9 8.0
2018-Jun-11 07:54N 23°52' E 117°54'49 8.7
2018-Jun-11 02:19N 24°21' E 118°37'  

Dump ship's entire track history